sensor_id;sensor_type;location;lat;lon;timestamp;P1;durP1;ratioP1;P2;durP2;ratioP2
76640;SDS011;65538;50.798;6.064;2023-09-07T00:01:14;8.87;;;6.23;;
76640;SDS011;65538;50.798;6.064;2023-09-07T00:03:39;8.03;;;5.57;;
76640;SDS011;65538;50.798;6.064;2023-09-07T00:06:06;13.07;;;6.47;;
76640;SDS011;65538;50.798;6.064;2023-09-07T00:08:46;12.27;;;5.75;;
76640;SDS011;65538;50.798;6.064;2023-09-07T00:11:11;10.07;;;6.18;;
76640;SDS011;65538;50.798;6.064;2023-09-07T00:13:36;12.83;;;6.47;;
76640;SDS011;65538;50.798;6.064;2023-09-07T00:16:02;11.97;;;6.13;;
76640;SDS011;65538;50.798;6.064;2023-09-07T00:18:28;9.27;;;6.22;;
76640;SDS011;65538;50.798;6.064;2023-09-07T00:20:53;10.35;;;5.90;;
76640;SDS011;65538;50.798;6.064;2023-09-07T00:23:19;9.60;;;6.87;;
76640;SDS011;65538;50.798;6.064;2023-09-07T00:25:45;8.77;;;5.68;;
76640;SDS011;65538;50.798;6.064;2023-09-07T00:28:10;10.50;;;6.43;;
76640;SDS011;65538;50.798;6.064;2023-09-07T00:30:35;11.27;;;6.43;;
76640;SDS011;65538;50.798;6.064;2023-09-07T00:33:00;11.47;;;6.13;;
76640;SDS011;65538;50.798;6.064;2023-09-07T00:35:25;9.53;;;6.17;;
76640;SDS011;65538;50.798;6.064;2023-09-07T00:37:51;10.60;;;6.50;;
76640;SDS011;65538;50.798;6.064;2023-09-07T00:40:16;11.53;;;7.03;;
76640;SDS011;65538;50.798;6.064;2023-09-07T00:42:41;11.10;;;6.67;;
76640;SDS011;65538;50.798;6.064;2023-09-07T00:45:06;13.80;;;6.73;;
76640;SDS011;65538;50.798;6.064;2023-09-07T00:47:32;8.65;;;6.35;;
76640;SDS011;65538;50.798;6.064;2023-09-07T00:49:58;9.57;;;6.03;;
76640;SDS011;65538;50.798;6.064;2023-09-07T00:52:24;12.30;;;6.68;;
76640;SDS011;65538;50.798;6.064;2023-09-07T00:54:49;10.63;;;6.33;;
76640;SDS011;65538;50.798;6.064;2023-09-07T00:57:15;10.52;;;6.22;;
76640;SDS011;65538;50.798;6.064;2023-09-07T00:59:40;15.73;;;6.73;;
76640;SDS011;65538;50.798;6.064;2023-09-07T01:02:05;12.70;;;6.63;;
76640;SDS011;65538;50.798;6.064;2023-09-07T01:04:31;10.60;;;6.40;;
76640;SDS011;65538;50.798;6.064;2023-09-07T01:06:56;10.40;;;6.10;;
76640;SDS011;65538;50.798;6.064;2023-09-07T01:09:24;9.63;;;5.60;;
76640;SDS011;65538;50.798;6.064;2023-09-07T01:11:51;9.50;;;6.28;;
76640;SDS011;65538;50.798;6.064;2023-09-07T01:14:17;9.20;;;6.20;;
76640;SDS011;65538;50.798;6.064;2023-09-07T01:16:43;9.50;;;5.70;;
76640;SDS011;65538;50.798;6.064;2023-09-07T01:19:08;11.70;;;6.03;;
76640;SDS011;65538;50.798;6.064;2023-09-07T01:21:35;13.07;;;6.22;;
76640;SDS011;65538;50.798;6.064;2023-09-07T01:24:01;9.73;;;6.22;;
76640;SDS011;65538;50.798;6.064;2023-09-07T01:26:26;8.32;;;5.78;;
76640;SDS011;65538;50.798;6.064;2023-09-07T01:28:51;9.77;;;5.57;;
76640;SDS011;65538;50.798;6.064;2023-09-07T01:31:17;8.70;;;5.73;;
76640;SDS011;65538;50.798;6.064;2023-09-07T01:33:42;10.43;;;5.83;;
76640;SDS011;65538;50.798;6.064;2023-09-07T01:36:07;8.67;;;5.80;;
76640;SDS011;65538;50.798;6.064;2023-09-07T01:38:32;10.03;;;6.30;;
76640;SDS011;65538;50.798;6.064;2023-09-07T01:40:57;10.57;;;6.17;;
76640;SDS011;65538;50.798;6.064;2023-09-07T01:43:23;7.80;;;5.70;;
76640;SDS011;65538;50.798;6.064;2023-09-07T01:45:48;10.40;;;6.20;;
76640;SDS011;65538;50.798;6.064;2023-09-07T01:48:13;10.33;;;5.77;;
76640;SDS011;65538;50.798;6.064;2023-09-07T01:50:39;9.95;;;6.25;;
76640;SDS011;65538;50.798;6.064;2023-09-07T01:53:04;8.97;;;6.77;;
76640;SDS011;65538;50.798;6.064;2023-09-07T01:55:30;10.30;;;6.20;;
76640;SDS011;65538;50.798;6.064;2023-09-07T01:57:55;8.27;;;5.82;;
76640;SDS011;65538;50.798;6.064;2023-09-07T02:00:20;10.73;;;6.00;;
76640;SDS011;65538;50.798;6.064;2023-09-07T02:02:45;9.57;;;6.03;;
76640;SDS011;65538;50.798;6.064;2023-09-07T02:05:11;7.63;;;5.53;;
76640;SDS011;65538;50.798;6.064;2023-09-07T02:07:36;10.20;;;6.28;;
76640;SDS011;65538;50.798;6.064;2023-09-07T02:10:02;9.60;;;6.47;;
76640;SDS011;65538;50.798;6.064;2023-09-07T02:12:28;9.38;;;6.35;;
76640;SDS011;65538;50.798;6.064;2023-09-07T02:14:53;8.87;;;6.33;;
76640;SDS011;65538;50.798;6.064;2023-09-07T02:17:19;10.93;;;6.67;;
76640;SDS011;65538;50.798;6.064;2023-09-07T02:19:44;11.03;;;7.27;;
76640;SDS011;65538;50.798;6.064;2023-09-07T02:22:09;11.38;;;7.13;;
76640;SDS011;65538;50.798;6.064;2023-09-07T02:24:35;9.43;;;6.37;;
76640;SDS011;65538;50.798;6.064;2023-09-07T02:27:00;16.67;;;7.17;;
76640;SDS011;65538;50.798;6.064;2023-09-07T02:29:25;11.63;;;7.37;;
76640;SDS011;65538;50.798;6.064;2023-09-07T02:31:50;9.23;;;6.43;;
76640;SDS011;65538;50.798;6.064;2023-09-07T02:34:15;10.63;;;7.00;;
76640;SDS011;65538;50.798;6.064;2023-09-07T02:36:40;10.00;;;6.73;;
76640;SDS011;65538;50.798;6.064;2023-09-07T02:39:06;9.93;;;6.47;;
76640;SDS011;65538;50.798;6.064;2023-09-07T02:41:33;10.55;;;6.57;;
76640;SDS011;65538;50.798;6.064;2023-09-07T02:43:58;12.45;;;6.63;;
76640;SDS011;65538;50.798;6.064;2023-09-07T02:46:24;10.73;;;6.33;;
76640;SDS011;65538;50.798;6.064;2023-09-07T02:48:49;9.63;;;6.20;;
76640;SDS011;65538;50.798;6.064;2023-09-07T02:51:14;10.90;;;6.40;;
76640;SDS011;65538;50.798;6.064;2023-09-07T02:53:39;10.93;;;6.05;;
76640;SDS011;65538;50.798;6.064;2023-09-07T02:56:05;11.93;;;6.60;;
76640;SDS011;65538;50.798;6.064;2023-09-07T02:58:30;8.93;;;6.00;;
76640;SDS011;65538;50.798;6.064;2023-09-07T03:00:56;10.25;;;5.68;;
76640;SDS011;65538;50.798;6.064;2023-09-07T03:03:21;12.30;;;6.60;;
76640;SDS011;65538;50.798;6.064;2023-09-07T03:05:46;10.20;;;5.77;;
76640;SDS011;65538;50.798;6.064;2023-09-07T03:08:11;10.27;;;5.80;;
76640;SDS011;65538;50.798;6.064;2023-09-07T03:10:37;8.20;;;5.40;;
76640;SDS011;65538;50.798;6.064;2023-09-07T03:13:06;9.45;;;5.57;;
76640;SDS011;65538;50.798;6.064;2023-09-07T03:15:31;9.93;;;5.53;;
76640;SDS011;65538;50.798;6.064;2023-09-07T03:17:57;10.70;;;5.63;;
76640;SDS011;65538;50.798;6.064;2023-09-07T03:20:22;8.73;;;5.87;;
76640;SDS011;65538;50.798;6.064;2023-09-07T03:22:47;9.85;;;6.25;;
76640;SDS011;65538;50.798;6.064;2023-09-07T03:25:13;10.70;;;5.77;;
76640;SDS011;65538;50.798;6.064;2023-09-07T03:27:38;10.13;;;6.07;;
76640;SDS011;65538;50.798;6.064;2023-09-07T03:30:04;9.30;;;6.07;;
76640;SDS011;65538;50.798;6.064;2023-09-07T03:32:30;9.48;;;6.13;;
76640;SDS011;65538;50.798;6.064;2023-09-07T03:34:58;9.25;;;5.93;;
76640;SDS011;65538;50.798;6.064;2023-09-07T03:37:23;9.35;;;5.80;;
76640;SDS011;65538;50.798;6.064;2023-09-07T03:39:48;10.00;;;6.20;;
76640;SDS011;65538;50.798;6.064;2023-09-07T03:42:14;8.57;;;5.25;;
76640;SDS011;65538;50.798;6.064;2023-09-07T03:44:39;9.53;;;5.37;;
76640;SDS011;65538;50.798;6.064;2023-09-07T03:47:04;10.83;;;6.13;;
76640;SDS011;65538;50.798;6.064;2023-09-07T03:49:30;8.98;;;5.55;;
76640;SDS011;65538;50.798;6.064;2023-09-07T03:51:55;9.53;;;5.53;;
76640;SDS011;65538;50.798;6.064;2023-09-07T03:54:20;11.47;;;5.70;;
76640;SDS011;65538;50.798;6.064;2023-09-07T03:56:45;10.10;;;5.60;;
76640;SDS011;65538;50.798;6.064;2023-09-07T03:59:11;10.17;;;5.87;;
76640;SDS011;65538;50.798;6.064;2023-09-07T04:01:36;10.20;;;6.13;;
76640;SDS011;65538;50.798;6.064;2023-09-07T04:04:01;9.90;;;5.47;;
76640;SDS011;65538;50.798;6.064;2023-09-07T04:06:26;8.63;;;5.77;;
76640;SDS011;65538;50.798;6.064;2023-09-07T04:08:51;10.43;;;5.67;;
76640;SDS011;65538;50.798;6.064;2023-09-07T04:11:17;9.43;;;5.90;;
76640;SDS011;65538;50.798;6.064;2023-09-07T04:13:42;13.27;;;5.87;;
76640;SDS011;65538;50.798;6.064;2023-09-07T04:16:08;9.07;;;5.40;;
76640;SDS011;65538;50.798;6.064;2023-09-07T04:18:33;9.20;;;5.88;;
76640;SDS011;65538;50.798;6.064;2023-09-07T04:21:05;9.77;;;6.13;;
76640;SDS011;65538;50.798;6.064;2023-09-07T04:23:31;9.90;;;6.03;;
76640;SDS011;65538;50.798;6.064;2023-09-07T04:26:09;9.00;;;5.77;;
76640;SDS011;65538;50.798;6.064;2023-09-07T04:28:35;11.20;;;5.65;;
76640;SDS011;65538;50.798;6.064;2023-09-07T04:31:01;9.38;;;5.65;;
76640;SDS011;65538;50.798;6.064;2023-09-07T04:33:29;12.40;;;5.82;;
76640;SDS011;65538;50.798;6.064;2023-09-07T04:35:54;15.25;;;5.60;;
76640;SDS011;65538;50.798;6.064;2023-09-07T04:38:19;11.00;;;6.33;;
76640;SDS011;65538;50.798;6.064;2023-09-07T04:40:44;10.17;;;5.20;;
76640;SDS011;65538;50.798;6.064;2023-09-07T04:43:10;7.90;;;5.50;;
76640;SDS011;65538;50.798;6.064;2023-09-07T04:45:35;8.17;;;5.67;;
76640;SDS011;65538;50.798;6.064;2023-09-07T04:48:00;11.17;;;6.00;;
76640;SDS011;65538;50.798;6.064;2023-09-07T04:50:25;8.93;;;5.07;;
76640;SDS011;65538;50.798;6.064;2023-09-07T04:52:50;9.37;;;6.10;;
76640;SDS011;65538;50.798;6.064;2023-09-07T04:55:15;8.83;;;5.90;;
76640;SDS011;65538;50.798;6.064;2023-09-07T04:57:41;11.40;;;5.77;;
76640;SDS011;65538;50.798;6.064;2023-09-07T05:00:06;9.90;;;6.57;;
76640;SDS011;65538;50.798;6.064;2023-09-07T05:02:32;11.45;;;6.28;;
76640;SDS011;65538;50.798;6.064;2023-09-07T05:04:58;10.30;;;6.40;;
76640;SDS011;65538;50.798;6.064;2023-09-07T05:07:23;11.50;;;6.70;;
76640;SDS011;65538;50.798;6.064;2023-09-07T05:09:48;13.40;;;7.50;;
76640;SDS011;65538;50.798;6.064;2023-09-07T05:12:13;11.83;;;7.50;;
76640;SDS011;65538;50.798;6.064;2023-09-07T05:14:39;12.05;;;7.60;;
76640;SDS011;65538;50.798;6.064;2023-09-07T05:17:04;13.73;;;7.67;;
76640;SDS011;65538;50.798;6.064;2023-09-07T05:19:29;12.40;;;7.97;;
76640;SDS011;65538;50.798;6.064;2023-09-07T05:21:54;12.77;;;7.60;;
76640;SDS011;65538;50.798;6.064;2023-09-07T05:24:20;16.57;;;7.30;;
76640;SDS011;65538;50.798;6.064;2023-09-07T05:26:45;11.90;;;6.90;;
76640;SDS011;65538;50.798;6.064;2023-09-07T05:29:11;11.83;;;7.07;;
76640;SDS011;65538;50.798;6.064;2023-09-07T05:31:36;12.93;;;7.28;;
76640;SDS011;65538;50.798;6.064;2023-09-07T05:34:01;10.80;;;7.13;;
76640;SDS011;65538;50.798;6.064;2023-09-07T05:36:27;13.30;;;7.40;;
76640;SDS011;65538;50.798;6.064;2023-09-07T05:38:52;11.88;;;6.75;;
76640;SDS011;65538;50.798;6.064;2023-09-07T05:41:17;13.10;;;7.03;;
76640;SDS011;65538;50.798;6.064;2023-09-07T05:43:43;10.27;;;6.80;;
76640;SDS011;65538;50.798;6.064;2023-09-07T05:46:08;10.90;;;6.93;;
76640;SDS011;65538;50.798;6.064;2023-09-07T05:48:33;11.17;;;7.27;;
76640;SDS011;65538;50.798;6.064;2023-09-07T05:50:58;13.53;;;6.97;;
76640;SDS011;65538;50.798;6.064;2023-09-07T05:53:23;16.27;;;6.97;;
76640;SDS011;65538;50.798;6.064;2023-09-07T05:55:52;13.27;;;6.70;;
76640;SDS011;65538;50.798;6.064;2023-09-07T05:58:17;10.53;;;6.80;;
76640;SDS011;65538;50.798;6.064;2023-09-07T06:00:42;12.57;;;6.60;;
76640;SDS011;65538;50.798;6.064;2023-09-07T06:03:08;11.35;;;6.25;;
76640;SDS011;65538;50.798;6.064;2023-09-07T06:05:34;15.73;;;6.72;;
76640;SDS011;65538;50.798;6.064;2023-09-07T06:08:00;10.60;;;6.65;;
76640;SDS011;65538;50.798;6.064;2023-09-07T06:10:27;10.00;;;6.87;;
76640;SDS011;65538;50.798;6.064;2023-09-07T06:12:52;11.98;;;7.03;;
76640;SDS011;65538;50.798;6.064;2023-09-07T06:15:17;11.90;;;6.73;;
76640;SDS011;65538;50.798;6.064;2023-09-07T06:17:43;10.87;;;7.03;;
76640;SDS011;65538;50.798;6.064;2023-09-07T06:20:08;12.40;;;7.10;;
76640;SDS011;65538;50.798;6.064;2023-09-07T06:22:34;15.57;;;6.25;;
76640;SDS011;65538;50.798;6.064;2023-09-07T06:24:59;10.87;;;6.70;;
76640;SDS011;65538;50.798;6.064;2023-09-07T06:27:24;11.90;;;6.70;;
76640;SDS011;65538;50.798;6.064;2023-09-07T06:29:49;11.53;;;6.37;;
76640;SDS011;65538;50.798;6.064;2023-09-07T06:32:15;11.38;;;6.25;;
76640;SDS011;65538;50.798;6.064;2023-09-07T06:34:41;12.43;;;6.70;;
76640;SDS011;65538;50.798;6.064;2023-09-07T06:37:06;13.37;;;6.60;;
76640;SDS011;65538;50.798;6.064;2023-09-07T06:39:31;17.13;;;7.00;;
76640;SDS011;65538;50.798;6.064;2023-09-07T06:41:56;12.70;;;6.47;;
76640;SDS011;65538;50.798;6.064;2023-09-07T06:44:22;11.23;;;6.77;;
76640;SDS011;65538;50.798;6.064;2023-09-07T06:46:47;15.60;;;6.30;;
76640;SDS011;65538;50.798;6.064;2023-09-07T06:49:12;11.27;;;6.27;;
76640;SDS011;65538;50.798;6.064;2023-09-07T06:51:37;10.10;;;6.13;;
76640;SDS011;65538;50.798;6.064;2023-09-07T06:54:02;9.83;;;5.67;;
76640;SDS011;65538;50.798;6.064;2023-09-07T06:56:28;14.65;;;6.05;;
76640;SDS011;65538;50.798;6.064;2023-09-07T06:58:56;11.88;;;5.68;;
76640;SDS011;65538;50.798;6.064;2023-09-07T07:01:21;8.70;;;5.10;;
76640;SDS011;65538;50.798;6.064;2023-09-07T07:03:46;9.17;;;5.60;;
76640;SDS011;65538;50.798;6.064;2023-09-07T07:06:11;9.13;;;4.67;;
76640;SDS011;65538;50.798;6.064;2023-09-07T07:08:37;11.70;;;4.70;;
76640;SDS011;65538;50.798;6.064;2023-09-07T07:11:02;9.23;;;5.10;;
76640;SDS011;65538;50.798;6.064;2023-09-07T07:13:27;8.50;;;4.60;;
76640;SDS011;65538;50.798;6.064;2023-09-07T07:15:52;6.77;;;4.30;;
76640;SDS011;65538;50.798;6.064;2023-09-07T07:18:17;9.53;;;5.27;;
76640;SDS011;65538;50.798;6.064;2023-09-07T07:20:43;7.63;;;4.37;;
76640;SDS011;65538;50.798;6.064;2023-09-07T07:23:11;8.20;;;4.55;;
76640;SDS011;65538;50.798;6.064;2023-09-07T07:25:37;9.57;;;5.28;;
76640;SDS011;65538;50.798;6.064;2023-09-07T07:28:03;7.90;;;4.77;;
76640;SDS011;65538;50.798;6.064;2023-09-07T07:30:34;8.68;;;4.85;;
76640;SDS011;65538;50.798;6.064;2023-09-07T07:33:01;11.48;;;4.90;;
76640;SDS011;65538;50.798;6.064;2023-09-07T07:35:28;8.95;;;4.80;;
76640;SDS011;65538;50.798;6.064;2023-09-07T07:37:54;6.70;;;4.40;;
76640;SDS011;65538;50.798;6.064;2023-09-07T07:40:19;8.73;;;5.03;;
76640;SDS011;65538;50.798;6.064;2023-09-07T07:42:45;7.30;;;4.00;;
76640;SDS011;65538;50.798;6.064;2023-09-07T07:45:14;9.30;;;4.85;;
76640;SDS011;65538;50.798;6.064;2023-09-07T07:47:43;9.57;;;4.30;;
76640;SDS011;65538;50.798;6.064;2023-09-07T07:50:08;7.38;;;4.20;;
76640;SDS011;65538;50.798;6.064;2023-09-07T07:52:33;7.68;;;4.30;;
76640;SDS011;65538;50.798;6.064;2023-09-07T07:54:59;6.57;;;4.70;;
76640;SDS011;65538;50.798;6.064;2023-09-07T07:57:25;7.00;;;4.13;;
76640;SDS011;65538;50.798;6.064;2023-09-07T07:59:50;8.00;;;4.53;;
76640;SDS011;65538;50.798;6.064;2023-09-07T08:02:15;6.70;;;4.27;;
76640;SDS011;65538;50.798;6.064;2023-09-07T08:04:40;6.37;;;4.00;;
76640;SDS011;65538;50.798;6.064;2023-09-07T08:07:06;7.38;;;4.22;;
76640;SDS011;65538;50.798;6.064;2023-09-07T08:09:33;7.05;;;4.13;;
76640;SDS011;65538;50.798;6.064;2023-09-07T08:11:58;6.20;;;4.33;;
76640;SDS011;65538;50.798;6.064;2023-09-07T08:14:25;7.68;;;4.55;;
76640;SDS011;65538;50.798;6.064;2023-09-07T08:16:50;7.45;;;4.97;;
76640;SDS011;65538;50.798;6.064;2023-09-07T08:19:15;7.47;;;3.70;;
76640;SDS011;65538;50.798;6.064;2023-09-07T08:21:41;9.20;;;4.60;;
76640;SDS011;65538;50.798;6.064;2023-09-07T08:24:07;7.28;;;4.32;;
76640;SDS011;65538;50.798;6.064;2023-09-07T08:26:32;8.85;;;4.38;;
76640;SDS011;65538;50.798;6.064;2023-09-07T08:28:58;8.23;;;4.60;;
76640;SDS011;65538;50.798;6.064;2023-09-07T08:31:23;7.97;;;4.33;;
76640;SDS011;65538;50.798;6.064;2023-09-07T08:33:53;6.35;;;4.25;;
76640;SDS011;65538;50.798;6.064;2023-09-07T08:36:20;6.97;;;4.50;;
76640;SDS011;65538;50.798;6.064;2023-09-07T08:38:47;7.05;;;4.43;;
76640;SDS011;65538;50.798;6.064;2023-09-07T08:41:13;6.68;;;4.07;;
76640;SDS011;65538;50.798;6.064;2023-09-07T08:43:39;7.57;;;4.13;;
76640;SDS011;65538;50.798;6.064;2023-09-07T08:46:14;10.65;;;4.50;;
76640;SDS011;65538;50.798;6.064;2023-09-07T08:48:40;7.50;;;4.43;;
76640;SDS011;65538;50.798;6.064;2023-09-07T08:51:07;8.80;;;4.00;;
76640;SDS011;65538;50.798;6.064;2023-09-07T08:53:32;8.98;;;4.18;;
76640;SDS011;65538;50.798;6.064;2023-09-07T08:55:59;7.47;;;4.32;;
76640;SDS011;65538;50.798;6.064;2023-09-07T08:58:24;8.73;;;4.20;;
76640;SDS011;65538;50.798;6.064;2023-09-07T09:00:50;6.83;;;4.23;;
76640;SDS011;65538;50.798;6.064;2023-09-07T09:03:16;7.57;;;4.47;;
76640;SDS011;65538;50.798;6.064;2023-09-07T09:05:42;9.30;;;4.03;;
76640;SDS011;65538;50.798;6.064;2023-09-07T09:08:08;8.55;;;4.30;;
76640;SDS011;65538;50.798;6.064;2023-09-07T09:10:33;5.80;;;4.20;;
76640;SDS011;65538;50.798;6.064;2023-09-07T09:12:58;8.18;;;4.40;;
76640;SDS011;65538;50.798;6.064;2023-09-07T09:15:27;9.38;;;4.72;;
76640;SDS011;65538;50.798;6.064;2023-09-07T09:17:53;7.47;;;4.37;;
76640;SDS011;65538;50.798;6.064;2023-09-07T09:22:48;8.63;;;4.43;;
76640;SDS011;65538;50.798;6.064;2023-09-07T09:25:13;10.95;;;4.22;;
76640;SDS011;65538;50.798;6.064;2023-09-07T09:27:38;7.40;;;4.83;;
76640;SDS011;65538;50.798;6.064;2023-09-07T09:30:04;6.87;;;3.90;;
76640;SDS011;65538;50.798;6.064;2023-09-07T09:32:29;7.00;;;4.10;;
76640;SDS011;65538;50.798;6.064;2023-09-07T09:34:54;10.23;;;4.03;;
76640;SDS011;65538;50.798;6.064;2023-09-07T09:37:20;5.37;;;3.67;;
76640;SDS011;65538;50.798;6.064;2023-09-07T09:39:48;6.35;;;4.00;;
76640;SDS011;65538;50.798;6.064;2023-09-07T09:42:14;8.10;;;4.05;;
76640;SDS011;65538;50.798;6.064;2023-09-07T09:44:40;6.03;;;4.05;;
76640;SDS011;65538;50.798;6.064;2023-09-07T09:47:05;5.53;;;3.63;;
76640;SDS011;65538;50.798;6.064;2023-09-07T09:49:31;7.00;;;4.25;;
76640;SDS011;65538;50.798;6.064;2023-09-07T09:51:57;7.13;;;4.80;;
76640;SDS011;65538;50.798;6.064;2023-09-07T09:54:23;8.90;;;4.57;;
76640;SDS011;65538;50.798;6.064;2023-09-07T09:56:48;7.30;;;4.30;;
76640;SDS011;65538;50.798;6.064;2023-09-07T09:59:14;6.13;;;3.73;;
76640;SDS011;65538;50.798;6.064;2023-09-07T10:01:40;6.25;;;3.85;;
76640;SDS011;65538;50.798;6.064;2023-09-07T10:04:06;10.40;;;4.00;;
76640;SDS011;65538;50.798;6.064;2023-09-07T10:06:33;6.53;;;4.07;;
76640;SDS011;65538;50.798;6.064;2023-09-07T10:11:32;6.80;;;4.40;;
76640;SDS011;65538;50.798;6.064;2023-09-07T10:13:58;6.63;;;4.15;;
76640;SDS011;65538;50.798;6.064;2023-09-07T10:16:23;7.82;;;4.38;;
76640;SDS011;65538;50.798;6.064;2023-09-07T10:18:49;8.77;;;4.27;;
76640;SDS011;65538;50.798;6.064;2023-09-07T10:21:14;8.20;;;4.13;;
76640;SDS011;65538;50.798;6.064;2023-09-07T10:23:40;6.73;;;4.10;;
76640;SDS011;65538;50.798;6.064;2023-09-07T10:26:11;5.30;;;3.78;;
76640;SDS011;65538;50.798;6.064;2023-09-07T10:28:37;7.93;;;4.22;;
76640;SDS011;65538;50.798;6.064;2023-09-07T10:31:03;6.07;;;4.50;;
76640;SDS011;65538;50.798;6.064;2023-09-07T10:33:28;7.30;;;4.18;;
76640;SDS011;65538;50.798;6.064;2023-09-07T10:35:54;7.18;;;4.28;;
76640;SDS011;65538;50.798;6.064;2023-09-07T10:38:19;8.47;;;4.43;;
76640;SDS011;65538;50.798;6.064;2023-09-07T10:40:44;8.47;;;4.43;;
76640;SDS011;65538;50.798;6.064;2023-09-07T10:43:13;6.97;;;4.63;;
76640;SDS011;65538;50.798;6.064;2023-09-07T10:45:38;10.10;;;5.23;;
76640;SDS011;65538;50.798;6.064;2023-09-07T10:48:03;7.20;;;4.33;;
76640;SDS011;65538;50.798;6.064;2023-09-07T10:50:29;5.60;;;3.83;;
76640;SDS011;65538;50.798;6.064;2023-09-07T10:52:54;8.93;;;4.10;;
76640;SDS011;65538;50.798;6.064;2023-09-07T10:55:19;7.60;;;4.20;;
76640;SDS011;65538;50.798;6.064;2023-09-07T10:57:45;7.85;;;4.05;;
76640;SDS011;65538;50.798;6.064;2023-09-07T11:00:11;6.20;;;4.18;;
76640;SDS011;65538;50.798;6.064;2023-09-07T11:02:40;7.65;;;4.22;;
76640;SDS011;65538;50.798;6.064;2023-09-07T11:05:06;7.35;;;3.90;;
76640;SDS011;65538;50.798;6.064;2023-09-07T11:07:31;6.82;;;4.30;;
76640;SDS011;65538;50.798;6.064;2023-09-07T11:09:57;6.30;;;4.65;;
76640;SDS011;65538;50.798;6.064;2023-09-07T11:12:22;6.77;;;3.90;;
76640;SDS011;65538;50.798;6.064;2023-09-07T11:14:47;7.80;;;4.53;;
76640;SDS011;65538;50.798;6.064;2023-09-07T11:17:13;8.50;;;4.93;;
76640;SDS011;65538;50.798;6.064;2023-09-07T11:19:38;5.70;;;4.13;;
76640;SDS011;65538;50.798;6.064;2023-09-07T11:22:03;6.53;;;4.60;;
76640;SDS011;65538;50.798;6.064;2023-09-07T11:24:29;5.32;;;3.28;;
76640;SDS011;65538;50.798;6.064;2023-09-07T11:26:54;4.90;;;3.38;;
76640;SDS011;65538;50.798;6.064;2023-09-07T11:29:22;5.38;;;3.60;;
76640;SDS011;65538;50.798;6.064;2023-09-07T11:31:47;6.43;;;3.72;;
76640;SDS011;65538;50.798;6.064;2023-09-07T11:34:13;8.23;;;3.30;;
76640;SDS011;65538;50.798;6.064;2023-09-07T11:36:39;6.78;;;3.60;;
76640;SDS011;65538;50.798;6.064;2023-09-07T11:39:04;6.18;;;3.58;;
76640;SDS011;65538;50.798;6.064;2023-09-07T11:41:41;6.20;;;3.40;;
76640;SDS011;65538;50.798;6.064;2023-09-07T11:44:07;7.78;;;4.25;;
76640;SDS011;65538;50.798;6.064;2023-09-07T11:46:32;7.17;;;3.93;;
76640;SDS011;65538;50.798;6.064;2023-09-07T11:48:57;6.70;;;4.10;;
76640;SDS011;65538;50.798;6.064;2023-09-07T11:51:23;7.82;;;3.97;;
76640;SDS011;65538;50.798;6.064;2023-09-07T11:53:49;5.70;;;3.37;;
76640;SDS011;65538;50.798;6.064;2023-09-07T11:56:14;7.23;;;4.73;;
76640;SDS011;65538;50.798;6.064;2023-09-07T11:58:39;7.70;;;4.23;;
76640;SDS011;65538;50.798;6.064;2023-09-07T12:01:04;6.30;;;4.10;;
76640;SDS011;65538;50.798;6.064;2023-09-07T12:03:30;6.07;;;4.00;;
76640;SDS011;65538;50.798;6.064;2023-09-07T12:05:57;5.45;;;4.68;;
76640;SDS011;65538;50.798;6.064;2023-09-07T12:08:22;6.17;;;4.07;;
76640;SDS011;65538;50.798;6.064;2023-09-07T12:10:47;6.55;;;4.07;;
76640;SDS011;65538;50.798;6.064;2023-09-07T12:13:13;5.43;;;3.80;;
76640;SDS011;65538;50.798;6.064;2023-09-07T12:15:38;5.97;;;3.90;;
76640;SDS011;65538;50.798;6.064;2023-09-07T12:18:03;8.53;;;3.83;;
76640;SDS011;65538;50.798;6.064;2023-09-07T12:20:28;8.35;;;3.72;;
76640;SDS011;65538;50.798;6.064;2023-09-07T12:22:54;5.82;;;4.57;;
76640;SDS011;65538;50.798;6.064;2023-09-07T12:25:19;5.53;;;4.57;;
76640;SDS011;65538;50.798;6.064;2023-09-07T12:27:44;6.93;;;3.83;;
76640;SDS011;65538;50.798;6.064;2023-09-07T12:30:12;6.88;;;4.75;;
76640;SDS011;65538;50.798;6.064;2023-09-07T12:32:41;5.85;;;3.58;;
76640;SDS011;65538;50.798;6.064;2023-09-07T12:35:06;6.07;;;3.80;;
76640;SDS011;65538;50.798;6.064;2023-09-07T12:37:33;7.72;;;4.15;;
76640;SDS011;65538;50.798;6.064;2023-09-07T12:39:59;10.77;;;5.28;;
76640;SDS011;65538;50.798;6.064;2023-09-07T12:42:24;8.57;;;3.40;;
76640;SDS011;65538;50.798;6.064;2023-09-07T12:44:49;9.97;;;4.93;;
76640;SDS011;65538;50.798;6.064;2023-09-07T12:47:14;6.15;;;3.53;;
76640;SDS011;65538;50.798;6.064;2023-09-07T12:49:40;4.77;;;3.63;;
76640;SDS011;65538;50.798;6.064;2023-09-07T12:52:06;9.30;;;5.30;;
76640;SDS011;65538;50.798;6.064;2023-09-07T12:54:34;8.82;;;5.03;;
76640;SDS011;65538;50.798;6.064;2023-09-07T12:57:00;10.50;;;4.28;;
76640;SDS011;65538;50.798;6.064;2023-09-07T12:59:25;5.57;;;3.47;;
76640;SDS011;65538;50.798;6.064;2023-09-07T13:01:50;6.80;;;3.93;;
76640;SDS011;65538;50.798;6.064;2023-09-07T13:04:18;8.40;;;4.93;;
76640;SDS011;65538;50.798;6.064;2023-09-07T13:06:43;5.75;;;3.53;;
76640;SDS011;65538;50.798;6.064;2023-09-07T13:09:08;5.13;;;3.80;;
76640;SDS011;65538;50.798;6.064;2023-09-07T13:11:34;6.72;;;3.97;;
76640;SDS011;65538;50.798;6.064;2023-09-07T13:13:59;4.67;;;3.60;;
76640;SDS011;65538;50.798;6.064;2023-09-07T13:16:25;4.57;;;3.43;;
76640;SDS011;65538;50.798;6.064;2023-09-07T13:18:50;7.22;;;4.45;;
76640;SDS011;65538;50.798;6.064;2023-09-07T13:21:16;5.00;;;3.60;;
76640;SDS011;65538;50.798;6.064;2023-09-07T13:23:41;6.27;;;3.70;;
76640;SDS011;65538;50.798;6.064;2023-09-07T13:26:06;6.50;;;4.63;;
76640;SDS011;65538;50.798;6.064;2023-09-07T13:28:31;5.78;;;4.32;;
76640;SDS011;65538;50.798;6.064;2023-09-07T13:30:57;5.38;;;3.70;;
76640;SDS011;65538;50.798;6.064;2023-09-07T13:33:22;5.40;;;4.05;;
76640;SDS011;65538;50.798;6.064;2023-09-07T13:35:48;5.67;;;4.77;;
76640;SDS011;65538;50.798;6.064;2023-09-07T13:38:13;5.87;;;4.70;;
76640;SDS011;65538;50.798;6.064;2023-09-07T13:40:38;7.67;;;4.63;;
76640;SDS011;65538;50.798;6.064;2023-09-07T13:43:04;5.55;;;3.65;;
76640;SDS011;65538;50.798;6.064;2023-09-07T13:45:29;6.70;;;3.90;;
76640;SDS011;65538;50.798;6.064;2023-09-07T13:47:55;6.60;;;4.43;;
76640;SDS011;65538;50.798;6.064;2023-09-07T13:50:20;7.20;;;4.78;;
76640;SDS011;65538;50.798;6.064;2023-09-07T13:52:45;7.87;;;3.50;;
76640;SDS011;65538;50.798;6.064;2023-09-07T13:55:11;6.90;;;4.20;;
76640;SDS011;65538;50.798;6.064;2023-09-07T13:57:36;5.93;;;5.20;;
76640;SDS011;65538;50.798;6.064;2023-09-07T14:00:01;8.07;;;4.93;;
76640;SDS011;65538;50.798;6.064;2023-09-07T14:02:26;6.90;;;4.50;;
76640;SDS011;65538;50.798;6.064;2023-09-07T14:04:52;6.10;;;3.67;;
76640;SDS011;65538;50.798;6.064;2023-09-07T14:07:17;6.30;;;3.90;;
76640;SDS011;65538;50.798;6.064;2023-09-07T14:09:43;4.28;;;3.65;;
76640;SDS011;65538;50.798;6.064;2023-09-07T14:12:09;7.03;;;3.60;;
76640;SDS011;65538;50.798;6.064;2023-09-07T14:14:34;7.57;;;3.28;;
76640;SDS011;65538;50.798;6.064;2023-09-07T14:16:59;6.03;;;4.27;;
76640;SDS011;65538;50.798;6.064;2023-09-07T14:19:25;5.80;;;3.47;;
76640;SDS011;65538;50.798;6.064;2023-09-07T14:21:52;5.38;;;4.43;;
76640;SDS011;65538;50.798;6.064;2023-09-07T14:24:17;6.63;;;4.73;;
76640;SDS011;65538;50.798;6.064;2023-09-07T14:26:42;6.73;;;3.93;;
76640;SDS011;65538;50.798;6.064;2023-09-07T14:29:08;6.28;;;4.60;;
76640;SDS011;65538;50.798;6.064;2023-09-07T14:31:33;7.13;;;3.90;;
76640;SDS011;65538;50.798;6.064;2023-09-07T14:33:59;5.53;;;4.00;;
76640;SDS011;65538;50.798;6.064;2023-09-07T14:36:24;6.83;;;4.63;;
76640;SDS011;65538;50.798;6.064;2023-09-07T14:38:49;4.70;;;3.67;;